sensor_id;sensor_type;location;lat;lon;timestamp;P1;durP1;ratioP1;P2;durP2;ratioP2
51901;SDS011;37929;53.218;6.548;2023-06-22T00:01:14;16.80;;;10.60;;
51901;SDS011;37929;53.218;6.548;2023-06-22T00:03:40;18.88;;;10.57;;
51901;SDS011;37929;53.218;6.548;2023-06-22T00:06:06;15.13;;;10.93;;
51901;SDS011;37929;53.218;6.548;2023-06-22T00:08:32;13.75;;;10.02;;
51901;SDS011;37929;53.218;6.548;2023-06-22T00:10:57;19.98;;;12.45;;
51901;SDS011;37929;53.218;6.548;2023-06-22T00:13:23;16.10;;;10.07;;
51901;SDS011;37929;53.218;6.548;2023-06-22T00:15:49;19.00;;;12.27;;
51901;SDS011;37929;53.218;6.548;2023-06-22T00:18:14;19.30;;;12.38;;
51901;SDS011;37929;53.218;6.548;2023-06-22T00:20:41;20.67;;;12.85;;
51901;SDS011;37929;53.218;6.548;2023-06-22T00:23:07;18.42;;;13.50;;
51901;SDS011;37929;53.218;6.548;2023-06-22T00:25:36;19.75;;;12.88;;
51901;SDS011;37929;53.218;6.548;2023-06-22T00:28:05;16.85;;;11.85;;
51901;SDS011;37929;53.218;6.548;2023-06-22T00:30:31;21.27;;;12.93;;
51901;SDS011;37929;53.218;6.548;2023-06-22T00:32:57;19.13;;;11.98;;
51901;SDS011;37929;53.218;6.548;2023-06-22T00:35:24;19.08;;;13.60;;
51901;SDS011;37929;53.218;6.548;2023-06-22T00:37:59;20.13;;;13.85;;
51901;SDS011;37929;53.218;6.548;2023-06-22T00:40:26;19.50;;;13.73;;
51901;SDS011;37929;53.218;6.548;2023-06-22T00:42:53;19.58;;;13.27;;
51901;SDS011;37929;53.218;6.548;2023-06-22T00:45:19;21.52;;;13.77;;
51901;SDS011;37929;53.218;6.548;2023-06-22T00:47:45;21.13;;;13.88;;
51901;SDS011;37929;53.218;6.548;2023-06-22T00:50:12;22.70;;;14.13;;
51901;SDS011;37929;53.218;6.548;2023-06-22T00:52:43;20.90;;;12.02;;
51901;SDS011;37929;53.218;6.548;2023-06-22T00:55:09;22.48;;;15.45;;
51901;SDS011;37929;53.218;6.548;2023-06-22T00:57:35;23.95;;;15.98;;
51901;SDS011;37929;53.218;6.548;2023-06-22T01:00:02;22.88;;;15.30;;
51901;SDS011;37929;53.218;6.548;2023-06-22T01:02:32;22.30;;;16.02;;
51901;SDS011;37929;53.218;6.548;2023-06-22T01:04:59;22.88;;;16.05;;
51901;SDS011;37929;53.218;6.548;2023-06-22T01:12:55;22.60;;;14.98;;
51901;SDS011;37929;53.218;6.548;2023-06-22T01:15:46;19.85;;;14.88;;
51901;SDS011;37929;53.218;6.548;2023-06-22T01:18:23;20.20;;;13.55;;
51901;SDS011;37929;53.218;6.548;2023-06-22T01:20:54;20.52;;;13.35;;
51901;SDS011;37929;53.218;6.548;2023-06-22T01:28:59;18.80;;;14.05;;
51901;SDS011;37929;53.218;6.548;2023-06-22T01:31:28;18.10;;;13.45;;
51901;SDS011;37929;53.218;6.548;2023-06-22T01:34:00;12.60;;;9.30;;
51901;SDS011;37929;53.218;6.548;2023-06-22T01:36:28;11.05;;;8.38;;
51901;SDS011;37929;53.218;6.548;2023-06-22T01:38:56;14.95;;;10.48;;
51901;SDS011;37929;53.218;6.548;2023-06-22T01:41:26;12.98;;;10.30;;
51901;SDS011;37929;53.218;6.548;2023-06-22T01:43:55;16.80;;;11.43;;
51901;SDS011;37929;53.218;6.548;2023-06-22T01:46:21;17.90;;;12.18;;
51901;SDS011;37929;53.218;6.548;2023-06-22T01:48:48;15.55;;;12.15;;
51901;SDS011;37929;53.218;6.548;2023-06-22T01:51:14;16.00;;;9.65;;
51901;SDS011;37929;53.218;6.548;2023-06-22T01:53:40;15.48;;;9.85;;
51901;SDS011;37929;53.218;6.548;2023-06-22T01:56:07;14.18;;;10.95;;
51901;SDS011;37929;53.218;6.548;2023-06-22T01:58:33;19.48;;;11.55;;
51901;SDS011;37929;53.218;6.548;2023-06-22T02:01:11;17.85;;;12.50;;
51901;SDS011;37929;53.218;6.548;2023-06-22T02:03:42;16.20;;;11.23;;
51901;SDS011;37929;53.218;6.548;2023-06-22T02:06:46;14.80;;;10.05;;
51901;SDS011;37929;53.218;6.548;2023-06-22T02:09:11;15.48;;;11.13;;
51901;SDS011;37929;53.218;6.548;2023-06-22T02:11:41;20.95;;;15.00;;
51901;SDS011;37929;53.218;6.548;2023-06-22T02:14:09;18.38;;;13.13;;
51901;SDS011;37929;53.218;6.548;2023-06-22T02:16:36;21.42;;;14.02;;
51901;SDS011;37929;53.218;6.548;2023-06-22T02:19:03;16.92;;;11.77;;
51901;SDS011;37929;53.218;6.548;2023-06-22T02:21:29;15.30;;;11.40;;
51901;SDS011;37929;53.218;6.548;2023-06-22T02:23:56;19.92;;;14.82;;
51901;SDS011;37929;53.218;6.548;2023-06-22T02:26:22;28.83;;;16.27;;
51901;SDS011;37929;53.218;6.548;2023-06-22T02:28:48;25.45;;;16.77;;
51901;SDS011;37929;53.218;6.548;2023-06-22T02:31:14;20.52;;;13.35;;
51901;SDS011;37929;53.218;6.548;2023-06-22T02:33:41;18.33;;;13.20;;
51901;SDS011;37929;53.218;6.548;2023-06-22T02:36:07;19.92;;;14.52;;
51901;SDS011;37929;53.218;6.548;2023-06-22T02:38:34;26.27;;;16.05;;
51901;SDS011;37929;53.218;6.548;2023-06-22T02:41:01;24.55;;;15.85;;
51901;SDS011;37929;53.218;6.548;2023-06-22T02:43:31;21.92;;;16.25;;
51901;SDS011;37929;53.218;6.548;2023-06-22T02:45:57;24.67;;;16.05;;
51901;SDS011;37929;53.218;6.548;2023-06-22T02:48:23;20.38;;;13.73;;
51901;SDS011;37929;53.218;6.548;2023-06-22T02:50:49;17.35;;;12.63;;
51901;SDS011;37929;53.218;6.548;2023-06-22T02:53:15;20.60;;;15.52;;
51901;SDS011;37929;53.218;6.548;2023-06-22T02:55:41;18.10;;;12.73;;
51901;SDS011;37929;53.218;6.548;2023-06-22T02:58:07;19.58;;;13.63;;
51901;SDS011;37929;53.218;6.548;2023-06-22T03:00:33;17.83;;;12.02;;
51901;SDS011;37929;53.218;6.548;2023-06-22T03:02:59;24.63;;;16.05;;
51901;SDS011;37929;53.218;6.548;2023-06-22T03:05:25;22.85;;;16.73;;
51901;SDS011;37929;53.218;6.548;2023-06-22T03:07:51;22.35;;;16.23;;
51901;SDS011;37929;53.218;6.548;2023-06-22T03:10:16;26.13;;;17.67;;
51901;SDS011;37929;53.218;6.548;2023-06-22T03:12:43;25.27;;;16.80;;
51901;SDS011;37929;53.218;6.548;2023-06-22T03:15:10;28.65;;;17.95;;
51901;SDS011;37929;53.218;6.548;2023-06-22T03:17:37;23.60;;;16.73;;
51901;SDS011;37929;53.218;6.548;2023-06-22T03:20:04;26.45;;;17.75;;
51901;SDS011;37929;53.218;6.548;2023-06-22T03:22:37;25.38;;;16.90;;
51901;SDS011;37929;53.218;6.548;2023-06-22T03:25:04;26.92;;;17.73;;
51901;SDS011;37929;53.218;6.548;2023-06-22T03:27:42;17.83;;;13.27;;
51901;SDS011;37929;53.218;6.548;2023-06-22T03:30:11;19.85;;;13.65;;
51901;SDS011;37929;53.218;6.548;2023-06-22T03:32:37;21.73;;;13.52;;
51901;SDS011;37929;53.218;6.548;2023-06-22T03:35:03;27.17;;;13.25;;
51901;SDS011;37929;53.218;6.548;2023-06-22T03:37:31;23.05;;;16.40;;
51901;SDS011;37929;53.218;6.548;2023-06-22T03:39:57;26.65;;;17.52;;
51901;SDS011;37929;53.218;6.548;2023-06-22T03:42:22;15.80;;;11.00;;
51901;SDS011;37929;53.218;6.548;2023-06-22T03:44:48;15.30;;;11.20;;
51901;SDS011;37929;53.218;6.548;2023-06-22T03:47:14;17.42;;;13.20;;
51901;SDS011;37929;53.218;6.548;2023-06-22T03:49:40;17.27;;;12.13;;
51901;SDS011;37929;53.218;6.548;2023-06-22T03:52:05;20.20;;;14.85;;
51901;SDS011;37929;53.218;6.548;2023-06-22T03:54:31;17.67;;;11.25;;
51901;SDS011;37929;53.218;6.548;2023-06-22T03:56:57;13.65;;;9.95;;
51901;SDS011;37929;53.218;6.548;2023-06-22T03:59:23;16.33;;;11.35;;
51901;SDS011;37929;53.218;6.548;2023-06-22T04:01:49;19.80;;;13.75;;
51901;SDS011;37929;53.218;6.548;2023-06-22T04:04:16;20.38;;;12.60;;
51901;SDS011;37929;53.218;6.548;2023-06-22T04:06:45;19.52;;;13.52;;
51901;SDS011;37929;53.218;6.548;2023-06-22T04:09:10;18.63;;;13.05;;
51901;SDS011;37929;53.218;6.548;2023-06-22T04:11:37;24.85;;;16.63;;
51901;SDS011;37929;53.218;6.548;2023-06-22T04:14:02;24.20;;;17.10;;
51901;SDS011;37929;53.218;6.548;2023-06-22T04:16:28;21.10;;;14.38;;
51901;SDS011;37929;53.218;6.548;2023-06-22T04:18:54;21.27;;;15.18;;
51901;SDS011;37929;53.218;6.548;2023-06-22T04:21:20;21.63;;;14.93;;
51901;SDS011;37929;53.218;6.548;2023-06-22T04:23:46;22.10;;;15.30;;
51901;SDS011;37929;53.218;6.548;2023-06-22T04:26:15;21.23;;;14.20;;
51901;SDS011;37929;53.218;6.548;2023-06-22T04:28:41;25.63;;;16.85;;
51901;SDS011;37929;53.218;6.548;2023-06-22T04:31:07;19.65;;;13.82;;
51901;SDS011;37929;53.218;6.548;2023-06-22T04:33:32;33.17;;;21.90;;
51901;SDS011;37929;53.218;6.548;2023-06-22T04:35:58;25.70;;;16.42;;
51901;SDS011;37929;53.218;6.548;2023-06-22T04:38:28;23.80;;;14.50;;
51901;SDS011;37929;53.218;6.548;2023-06-22T04:40:58;25.90;;;16.08;;
51901;SDS011;37929;53.218;6.548;2023-06-22T04:43:27;25.33;;;17.55;;
51901;SDS011;37929;53.218;6.548;2023-06-22T04:45:58;24.35;;;16.52;;
51901;SDS011;37929;53.218;6.548;2023-06-22T04:48:31;23.70;;;15.73;;
51901;SDS011;37929;53.218;6.548;2023-06-22T04:51:01;30.88;;;18.48;;
51901;SDS011;37929;53.218;6.548;2023-06-22T04:53:30;20.42;;;13.85;;
51901;SDS011;37929;53.218;6.548;2023-06-22T04:55:56;20.48;;;15.68;;
51901;SDS011;37929;53.218;6.548;2023-06-22T04:58:22;25.00;;;17.85;;
51901;SDS011;37929;53.218;6.548;2023-06-22T05:00:48;58.67;;;18.08;;
51901;SDS011;37929;53.218;6.548;2023-06-22T05:03:17;23.45;;;16.40;;
51901;SDS011;37929;53.218;6.548;2023-06-22T05:05:43;28.20;;;18.23;;
51901;SDS011;37929;53.218;6.548;2023-06-22T05:08:09;24.50;;;17.55;;
51901;SDS011;37929;53.218;6.548;2023-06-22T05:10:35;24.83;;;17.40;;
51901;SDS011;37929;53.218;6.548;2023-06-22T05:13:01;23.00;;;15.90;;
51901;SDS011;37929;53.218;6.548;2023-06-22T05:15:26;28.60;;;19.48;;
51901;SDS011;37929;53.218;6.548;2023-06-22T05:17:55;24.48;;;17.38;;
51901;SDS011;37929;53.218;6.548;2023-06-22T05:20:21;23.63;;;17.80;;
51901;SDS011;37929;53.218;6.548;2023-06-22T05:22:47;25.63;;;16.65;;
51901;SDS011;37929;53.218;6.548;2023-06-22T05:25:13;24.23;;;17.20;;
51901;SDS011;37929;53.218;6.548;2023-06-22T05:27:39;22.67;;;16.42;;
51901;SDS011;37929;53.218;6.548;2023-06-22T05:30:07;25.77;;;18.65;;
51901;SDS011;37929;53.218;6.548;2023-06-22T05:32:35;25.17;;;17.52;;
51901;SDS011;37929;53.218;6.548;2023-06-22T05:35:01;27.65;;;18.67;;
51901;SDS011;37929;53.218;6.548;2023-06-22T05:37:28;23.50;;;16.73;;
51901;SDS011;37929;53.218;6.548;2023-06-22T05:39:54;21.95;;;15.60;;
51901;SDS011;37929;53.218;6.548;2023-06-22T05:42:22;22.27;;;16.92;;
51901;SDS011;37929;53.218;6.548;2023-06-22T05:44:49;30.58;;;20.02;;
51901;SDS011;37929;53.218;6.548;2023-06-22T05:47:15;24.75;;;15.65;;
51901;SDS011;37929;53.218;6.548;2023-06-22T05:49:41;24.90;;;15.65;;
51901;SDS011;37929;53.218;6.548;2023-06-22T05:52:07;25.17;;;16.55;;
51901;SDS011;37929;53.218;6.548;2023-06-22T05:54:36;24.60;;;16.17;;
51901;SDS011;37929;53.218;6.548;2023-06-22T05:57:04;22.52;;;15.20;;
51901;SDS011;37929;53.218;6.548;2023-06-22T05:59:30;22.77;;;16.70;;
51901;SDS011;37929;53.218;6.548;2023-06-22T06:01:55;24.48;;;16.35;;
51901;SDS011;37929;53.218;6.548;2023-06-22T06:04:21;27.90;;;18.17;;
51901;SDS011;37929;53.218;6.548;2023-06-22T06:06:47;23.73;;;16.80;;
51901;SDS011;37929;53.218;6.548;2023-06-22T06:09:15;24.95;;;17.88;;
51901;SDS011;37929;53.218;6.548;2023-06-22T06:11:41;24.00;;;16.65;;
51901;SDS011;37929;53.218;6.548;2023-06-22T06:14:07;24.95;;;17.27;;
51901;SDS011;37929;53.218;6.548;2023-06-22T06:16:33;21.17;;;15.30;;
51901;SDS011;37929;53.218;6.548;2023-06-22T06:18:59;26.05;;;18.13;;
51901;SDS011;37929;53.218;6.548;2023-06-22T06:21:25;22.05;;;16.02;;
51901;SDS011;37929;53.218;6.548;2023-06-22T06:23:51;20.38;;;15.10;;
51901;SDS011;37929;53.218;6.548;2023-06-22T06:26:18;20.13;;;14.60;;
51901;SDS011;37929;53.218;6.548;2023-06-22T06:28:53;22.83;;;15.55;;
51901;SDS011;37929;53.218;6.548;2023-06-22T06:31:24;19.10;;;14.38;;
51901;SDS011;37929;53.218;6.548;2023-06-22T06:33:52;21.90;;;15.80;;
51901;SDS011;37929;53.218;6.548;2023-06-22T06:36:19;22.33;;;14.30;;
51901;SDS011;37929;53.218;6.548;2023-06-22T06:38:44;21.55;;;13.63;;
51901;SDS011;37929;53.218;6.548;2023-06-22T06:41:13;18.38;;;12.32;;
51901;SDS011;37929;53.218;6.548;2023-06-22T06:43:40;18.88;;;13.13;;
51901;SDS011;37929;53.218;6.548;2023-06-22T06:46:07;17.85;;;13.40;;
51901;SDS011;37929;53.218;6.548;2023-06-22T06:48:33;16.00;;;11.93;;
51901;SDS011;37929;53.218;6.548;2023-06-22T06:50:58;17.38;;;12.20;;
51901;SDS011;37929;53.218;6.548;2023-06-22T06:53:25;18.33;;;13.68;;
51901;SDS011;37929;53.218;6.548;2023-06-22T06:55:51;17.33;;;12.80;;
51901;SDS011;37929;53.218;6.548;2023-06-22T06:58:16;17.90;;;12.98;;
51901;SDS011;37929;53.218;6.548;2023-06-22T07:00:42;16.52;;;12.68;;
51901;SDS011;37929;53.218;6.548;2023-06-22T07:03:08;17.52;;;11.48;;
51901;SDS011;37929;53.218;6.548;2023-06-22T07:05:34;16.40;;;12.13;;
51901;SDS011;37929;53.218;6.548;2023-06-22T07:08:01;14.82;;;11.75;;
51901;SDS011;37929;53.218;6.548;2023-06-22T07:10:26;16.00;;;11.27;;
51901;SDS011;37929;53.218;6.548;2023-06-22T07:12:53;19.02;;;12.10;;
51901;SDS011;37929;53.218;6.548;2023-06-22T07:15:18;16.38;;;11.60;;
51901;SDS011;37929;53.218;6.548;2023-06-22T07:17:44;18.13;;;12.52;;
51901;SDS011;37929;53.218;6.548;2023-06-22T07:20:10;16.65;;;11.65;;
51901;SDS011;37929;53.218;6.548;2023-06-22T07:22:39;16.05;;;11.52;;
51901;SDS011;37929;53.218;6.548;2023-06-22T07:25:07;15.18;;;11.27;;
51901;SDS011;37929;53.218;6.548;2023-06-22T07:27:39;13.75;;;9.65;;
51901;SDS011;37929;53.218;6.548;2023-06-22T07:30:10;16.20;;;10.38;;
51901;SDS011;37929;53.218;6.548;2023-06-22T07:32:36;14.23;;;10.30;;
51901;SDS011;37929;53.218;6.548;2023-06-22T07:35:02;16.88;;;11.20;;
51901;SDS011;37929;53.218;6.548;2023-06-22T07:37:29;16.83;;;11.23;;
51901;SDS011;37929;53.218;6.548;2023-06-22T07:39:55;15.18;;;10.60;;
51901;SDS011;37929;53.218;6.548;2023-06-22T07:42:25;12.20;;;9.02;;
51901;SDS011;37929;53.218;6.548;2023-06-22T07:44:51;12.13;;;9.43;;
51901;SDS011;37929;53.218;6.548;2023-06-22T07:47:17;11.00;;;8.35;;
51901;SDS011;37929;53.218;6.548;2023-06-22T07:49:46;10.88;;;7.93;;
51901;SDS011;37929;53.218;6.548;2023-06-22T07:52:12;12.50;;;9.05;;
51901;SDS011;37929;53.218;6.548;2023-06-22T07:54:37;12.77;;;9.45;;
51901;SDS011;37929;53.218;6.548;2023-06-22T07:57:03;12.48;;;9.80;;
51901;SDS011;37929;53.218;6.548;2023-06-22T07:59:29;12.30;;;8.52;;
51901;SDS011;37929;53.218;6.548;2023-06-22T08:01:55;11.35;;;8.48;;
51901;SDS011;37929;53.218;6.548;2023-06-22T08:04:24;12.70;;;8.15;;
51901;SDS011;37929;53.218;6.548;2023-06-22T08:06:49;11.65;;;7.07;;
51901;SDS011;37929;53.218;6.548;2023-06-22T08:09:15;10.57;;;7.00;;
51901;SDS011;37929;53.218;6.548;2023-06-22T08:11:41;10.57;;;7.35;;
51901;SDS011;37929;53.218;6.548;2023-06-22T08:14:06;10.55;;;7.65;;
51901;SDS011;37929;53.218;6.548;2023-06-22T08:16:32;9.68;;;7.60;;
51901;SDS011;37929;53.218;6.548;2023-06-22T08:18:58;11.45;;;8.52;;
51901;SDS011;37929;53.218;6.548;2023-06-22T08:21:24;12.02;;;8.90;;
51901;SDS011;37929;53.218;6.548;2023-06-22T08:23:49;11.82;;;8.25;;
51901;SDS011;37929;53.218;6.548;2023-06-22T08:26:15;10.45;;;7.50;;
51901;SDS011;37929;53.218;6.548;2023-06-22T08:28:44;9.20;;;7.20;;
51901;SDS011;37929;53.218;6.548;2023-06-22T08:31:10;10.70;;;7.07;;
51901;SDS011;37929;53.218;6.548;2023-06-22T08:33:37;9.27;;;6.90;;
51901;SDS011;37929;53.218;6.548;2023-06-22T08:36:03;8.40;;;6.10;;
51901;SDS011;37929;53.218;6.548;2023-06-22T08:38:31;6.97;;;5.50;;
51901;SDS011;37929;53.218;6.548;2023-06-22T08:40:57;8.65;;;6.78;;
51901;SDS011;37929;53.218;6.548;2023-06-22T08:43:22;10.43;;;7.03;;
51901;SDS011;37929;53.218;6.548;2023-06-22T08:45:48;9.50;;;6.72;;
51901;SDS011;37929;53.218;6.548;2023-06-22T08:48:17;10.02;;;6.53;;
51901;SDS011;37929;53.218;6.548;2023-06-22T08:50:43;8.05;;;5.55;;
51901;SDS011;37929;53.218;6.548;2023-06-22T08:53:09;8.02;;;6.03;;
51901;SDS011;37929;53.218;6.548;2023-06-22T08:55:35;9.45;;;5.85;;
51901;SDS011;37929;53.218;6.548;2023-06-22T08:58:01;13.82;;;9.32;;
51901;SDS011;37929;53.218;6.548;2023-06-22T09:00:26;8.65;;;6.22;;
51901;SDS011;37929;53.218;6.548;2023-06-22T09:02:57;8.57;;;6.28;;
51901;SDS011;37929;53.218;6.548;2023-06-22T09:08:17;10.13;;;6.18;;
51901;SDS011;37929;53.218;6.548;2023-06-22T09:10:43;7.45;;;5.40;;
51901;SDS011;37929;53.218;6.548;2023-06-22T09:13:08;7.95;;;6.32;;
51901;SDS011;37929;53.218;6.548;2023-06-22T09:15:34;10.80;;;6.53;;
51901;SDS011;37929;53.218;6.548;2023-06-22T09:18:00;8.35;;;6.05;;
51901;SDS011;37929;53.218;6.548;2023-06-22T09:20:26;7.55;;;5.50;;
51901;SDS011;37929;53.218;6.548;2023-06-22T09:22:52;8.52;;;6.07;;
51901;SDS011;37929;53.218;6.548;2023-06-22T09:25:17;8.65;;;5.53;;
51901;SDS011;37929;53.218;6.548;2023-06-22T09:27:45;10.23;;;6.05;;
51901;SDS011;37929;53.218;6.548;2023-06-22T09:30:12;6.55;;;5.25;;
51901;SDS011;37929;53.218;6.548;2023-06-22T09:32:38;6.95;;;5.97;;
51901;SDS011;37929;53.218;6.548;2023-06-22T09:35:04;9.25;;;7.22;;
51901;SDS011;37929;53.218;6.548;2023-06-22T09:37:31;8.65;;;6.00;;
51901;SDS011;37929;53.218;6.548;2023-06-22T09:39:57;6.82;;;5.00;;
51901;SDS011;37929;53.218;6.548;2023-06-22T09:42:23;6.43;;;5.18;;
51901;SDS011;37929;53.218;6.548;2023-06-22T09:44:49;8.05;;;5.88;;
51901;SDS011;37929;53.218;6.548;2023-06-22T09:47:14;8.73;;;6.80;;
51901;SDS011;37929;53.218;6.548;2023-06-22T09:49:40;7.72;;;6.18;;
51901;SDS011;37929;53.218;6.548;2023-06-22T09:52:06;8.02;;;5.57;;
51901;SDS011;37929;53.218;6.548;2023-06-22T09:54:33;6.55;;;5.50;;
51901;SDS011;37929;53.218;6.548;2023-06-22T09:56:58;8.73;;;6.13;;
51901;SDS011;37929;53.218;6.548;2023-06-22T09:59:24;9.05;;;6.07;;
51901;SDS011;37929;53.218;6.548;2023-06-22T10:01:50;8.95;;;6.72;;
51901;SDS011;37929;53.218;6.548;2023-06-22T10:04:19;9.27;;;6.40;;
51901;SDS011;37929;53.218;6.548;2023-06-22T10:06:45;8.68;;;6.88;;
51901;SDS011;37929;53.218;6.548;2023-06-22T10:09:10;7.07;;;6.13;;
51901;SDS011;37929;53.218;6.548;2023-06-22T10:11:42;6.88;;;5.00;;
51901;SDS011;37929;53.218;6.548;2023-06-22T10:14:08;7.30;;;5.82;;
51901;SDS011;37929;53.218;6.548;2023-06-22T10:16:35;8.90;;;6.18;;
51901;SDS011;37929;53.218;6.548;2023-06-22T10:19:01;8.15;;;6.10;;
51901;SDS011;37929;53.218;6.548;2023-06-22T10:21:27;7.25;;;6.13;;
51901;SDS011;37929;53.218;6.548;2023-06-22T10:23:53;7.60;;;5.88;;
51901;SDS011;37929;53.218;6.548;2023-06-22T10:26:20;7.63;;;5.97;;
51901;SDS011;37929;53.218;6.548;2023-06-22T10:28:46;7.75;;;5.78;;
51901;SDS011;37929;53.218;6.548;2023-06-22T10:31:13;7.63;;;5.90;;
51901;SDS011;37929;53.218;6.548;2023-06-22T10:33:41;8.23;;;6.07;;
51901;SDS011;37929;53.218;6.548;2023-06-22T10:36:09;8.32;;;6.28;;
51901;SDS011;37929;53.218;6.548;2023-06-22T10:38:35;7.90;;;5.90;;
51901;SDS011;37929;53.218;6.548;2023-06-22T10:41:01;7.50;;;6.70;;
51901;SDS011;37929;53.218;6.548;2023-06-22T10:43:27;8.02;;;6.05;;
51901;SDS011;37929;53.218;6.548;2023-06-22T10:45:53;7.93;;;6.20;;
51901;SDS011;37929;53.218;6.548;2023-06-22T10:48:19;7.93;;;6.68;;
51901;SDS011;37929;53.218;6.548;2023-06-22T10:50:46;10.07;;;6.15;;
51901;SDS011;37929;53.218;6.548;2023-06-22T10:53:12;8.10;;;6.18;;
51901;SDS011;37929;53.218;6.548;2023-06-22T10:55:38;7.28;;;5.63;;
51901;SDS011;37929;53.218;6.548;2023-06-22T10:58:04;7.97;;;6.00;;
51901;SDS011;37929;53.218;6.548;2023-06-22T11:00:29;7.78;;;6.13;;
51901;SDS011;37929;53.218;6.548;2023-06-22T11:02:55;7.43;;;6.13;;
51901;SDS011;37929;53.218;6.548;2023-06-22T11:05:21;8.18;;;6.00;;
51901;SDS011;37929;53.218;6.548;2023-06-22T11:07:47;7.10;;;6.25;;
51901;SDS011;37929;53.218;6.548;2023-06-22T11:10:14;8.15;;;5.68;;
51901;SDS011;37929;53.218;6.548;2023-06-22T11:12:40;8.85;;;5.28;;
51901;SDS011;37929;53.218;6.548;2023-06-22T11:15:08;7.47;;;5.28;;
51901;SDS011;37929;53.218;6.548;2023-06-22T11:17:34;6.80;;;5.25;;
51901;SDS011;37929;53.218;6.548;2023-06-22T11:20:00;7.57;;;5.68;;
51901;SDS011;37929;53.218;6.548;2023-06-22T11:22:26;7.25;;;5.32;;
51901;SDS011;37929;53.218;6.548;2023-06-22T11:24:52;7.30;;;6.25;;
51901;SDS011;37929;53.218;6.548;2023-06-22T11:27:18;7.95;;;6.47;;
51901;SDS011;37929;53.218;6.548;2023-06-22T11:29:44;8.38;;;5.47;;
51901;SDS011;37929;53.218;6.548;2023-06-22T11:32:09;6.78;;;5.13;;
51901;SDS011;37929;53.218;6.548;2023-06-22T11:34:35;5.55;;;4.60;;
51901;SDS011;37929;53.218;6.548;2023-06-22T11:37:01;7.32;;;5.55;;
51901;SDS011;37929;53.218;6.548;2023-06-22T11:39:27;6.68;;;5.97;;
51901;SDS011;37929;53.218;6.548;2023-06-22T11:41:52;7.47;;;5.78;;
51901;SDS011;37929;53.218;6.548;2023-06-22T11:44:18;6.80;;;5.10;;
51901;SDS011;37929;53.218;6.548;2023-06-22T11:46:44;5.93;;;5.22;;
51901;SDS011;37929;53.218;6.548;2023-06-22T11:49:10;6.65;;;4.90;;
51901;SDS011;37929;53.218;6.548;2023-06-22T11:51:36;7.32;;;5.20;;
51901;SDS011;37929;53.218;6.548;2023-06-22T11:54:01;7.82;;;5.60;;
51901;SDS011;37929;53.218;6.548;2023-06-22T11:56:28;7.28;;;5.60;;
51901;SDS011;37929;53.218;6.548;2023-06-22T11:58:54;8.27;;;5.90;;
51901;SDS011;37929;53.218;6.548;2023-06-22T12:01:20;6.32;;;5.47;;
51901;SDS011;37929;53.218;6.548;2023-06-22T12:03:46;9.05;;;5.93;;
51901;SDS011;37929;53.218;6.548;2023-06-22T12:06:13;6.88;;;5.57;;
51901;SDS011;37929;53.218;6.548;2023-06-22T12:08:39;6.97;;;5.45;;
51901;SDS011;37929;53.218;6.548;2023-06-22T12:11:04;8.13;;;6.03;;
51901;SDS011;37929;53.218;6.548;2023-06-22T12:13:30;5.25;;;4.72;;
51901;SDS011;37929;53.218;6.548;2023-06-22T12:15:56;5.53;;;4.57;;
51901;SDS011;37929;53.218;6.548;2023-06-22T12:18:22;8.30;;;5.60;;
51901;SDS011;37929;53.218;6.548;2023-06-22T12:20:47;6.25;;;5.05;;
51901;SDS011;37929;53.218;6.548;2023-06-22T12:23:14;8.18;;;5.80;;
51901;SDS011;37929;53.218;6.548;2023-06-22T12:25:40;7.57;;;5.30;;
51901;SDS011;37929;53.218;6.548;2023-06-22T12:28:06;8.63;;;6.22;;
51901;SDS011;37929;53.218;6.548;2023-06-22T12:30:34;5.60;;;4.60;;
51901;SDS011;37929;53.218;6.548;2023-06-22T12:33:00;5.65;;;4.63;;
51901;SDS011;37929;53.218;6.548;2023-06-22T12:35:26;6.18;;;4.82;;
51901;SDS011;37929;53.218;6.548;2023-06-22T12:37:52;6.78;;;5.13;;
51901;SDS011;37929;53.218;6.548;2023-06-22T12:40:18;7.28;;;4.78;;
51901;SDS011;37929;53.218;6.548;2023-06-22T12:42:44;5.13;;;4.40;;
51901;SDS011;37929;53.218;6.548;2023-06-22T12:45:11;7.18;;;5.38;;
51901;SDS011;37929;53.218;6.548;2023-06-22T12:47:36;5.72;;;4.40;;
51901;SDS011;37929;53.218;6.548;2023-06-22T12:50:02;6.78;;;4.00;;
51901;SDS011;37929;53.218;6.548;2023-06-22T12:52:29;6.32;;;3.80;;
51901;SDS011;37929;53.218;6.548;2023-06-22T12:54:59;5.45;;;4.40;;
51901;SDS011;37929;53.218;6.548;2023-06-22T12:57:25;6.07;;;4.15;;
51901;SDS011;37929;53.218;6.548;2023-06-22T12:59:50;5.15;;;4.30;;
51901;SDS011;37929;53.218;6.548;2023-06-22T13:02:16;7.55;;;4.70;;
51901;SDS011;37929;53.218;6.548;2023-06-22T13:04:42;8.00;;;4.75;;
51901;SDS011;37929;53.218;6.548;2023-06-22T13:07:08;7.88;;;5.05;;
51901;SDS011;37929;53.218;6.548;2023-06-22T13:09:35;6.95;;;5.00;;
51901;SDS011;37929;53.218;6.548;2023-06-22T13:12:02;5.57;;;4.22;;
51901;SDS011;37929;53.218;6.548;2023-06-22T13:14:27;5.35;;;4.05;;
51901;SDS011;37929;53.218;6.548;2023-06-22T13:16:53;5.18;;;3.97;;
51901;SDS011;37929;53.218;6.548;2023-06-22T13:19:19;8.50;;;3.97;;
51901;SDS011;37929;53.218;6.548;2023-06-22T13:21:45;4.20;;;3.42;;
51901;SDS011;37929;53.218;6.548;2023-06-22T13:24:10;4.95;;;3.88;;
51901;SDS011;37929;53.218;6.548;2023-06-22T13:26:36;5.18;;;3.70;;
51901;SDS011;37929;53.218;6.548;2023-06-22T13:29:02;5.20;;;3.47;;
51901;SDS011;37929;53.218;6.548;2023-06-22T13:31:28;5.47;;;3.80;;
51901;SDS011;37929;53.218;6.548;2023-06-22T13:33:54;4.97;;;3.63;;
51901;SDS011;37929;53.218;6.548;2023-06-22T13:36:19;4.93;;;3.13;;
51901;SDS011;37929;53.218;6.548;2023-06-22T13:38:46;4.55;;;3.20;;
51901;SDS011;37929;53.218;6.548;2023-06-22T13:41:12;6.10;;;3.17;;
51901;SDS011;37929;53.218;6.548;2023-06-22T13:43:38;6.57;;;3.63;;
51901;SDS011;37929;53.218;6.548;2023-06-22T13:46:04;3.90;;;3.15;;
51901;SDS011;37929;53.218;6.548;2023-06-22T13:48:30;5.18;;;3.20;;
51901;SDS011;37929;53.218;6.548;2023-06-22T13:50:56;4.00;;;2.90;;
51901;SDS011;37929;53.218;6.548;2023-06-22T13:53:22;4.00;;;3.38;;
51901;SDS011;37929;53.218;6.548;2023-06-22T13:55:49;4.75;;;3.40;;
51901;SDS011;37929;53.218;6.548;2023-06-22T13:58:15;4.72;;;3.30;;
51901;SDS011;37929;53.218;6.548;2023-06-22T14:00:41;4.60;;;3.08;;
51901;SDS011;37929;53.218;6.548;2023-06-22T14:03:07;4.90;;;3.17;;
51901;SDS011;37929;53.218;6.548;2023-06-22T14:05:32;4.68;;;3.22;;
51901;SDS011;37929;53.218;6.548;2023-06-22T14:07:58;4.75;;;3.10;;
51901;SDS011;37929;53.218;6.548;2023-06-22T14:10:24;3.58;;;2.80;;
51901;SDS011;37929;53.218;6.548;2023-06-22T14:12:50;4.53;;;2.92;;
51901;SDS011;37929;53.218;6.548;2023-06-22T14:15:16;4.47;;;3.40;;
51901;SDS011;37929;53.218;6.548;2023-06-22T14:17:42;3.83;;;2.90;;
51901;SDS011;37929;53.218;6.548;2023-06-22T14:20:08;3.30;;;2.50;;
51901;SDS011;37929;53.218;6.548;2023-06-22T14:22:34;3.10;;;2.63;;
51901;SDS011;37929;53.218;6.548;2023-06-22T14:25:01;3.35;;;2.40;;
51901;SDS011;37929;53.218;6.548;2023-06-22T14:27:27;3.83;;;2.60;;
51901;SDS011;37929;53.218;6.548;2023-06-22T14:29:53;3.00;;;2.53;;
51901;SDS011;37929;53.218;6.548;2023-06-22T14:32:18;2.90;;;2.17;;
51901;SDS011;37929;53.218;6.548;2023-06-22T14:34:44;2.38;;;2.08;;
51901;SDS011;37929;53.218;6.548;2023-06-22T14:37:10;3.55;;;2.20;;
51901;SDS011;37929;53.218;6.548;2023-06-22T14:39:36;3.20;;;2.08;;
51901;SDS011;37929;53.218;6.548;2023-06-22T14:42:02;4.07;;;2.38;;
51901;SDS011;37929;53.218;6.548;2023-06-22T14:44:28;5.05;;;2.10;;